Time;durP1;ratioP1;P1;durP2;ratioP2;P2;SDS_P1;SDS_P2;PMS_P1;PMS_P2;Temp;Humidity;BMP_temperature;BMP_pressure;BME280_temperature;BME280_humidity;BME280_pressure;Samples;Min_cycle;Max_cycle;Signal;HPM_P1;HPM_P2
2022/01/19 00:00:20;;;;;;;1241.57;576.50;;;4.30;99.90;;;;;;4959556;28;20545;-85
2022/01/19 00:02:45;;;;;;;1232.00;567.75;;;4.30;99.90;;;;;;4959893;28;20055;-85
2022/01/19 00:05:12;;;;;;;1240.63;572.25;;;4.30;99.90;;;;;;4965769;28;20042;-86
2022/01/19 00:07:38;;;;;;;1236.65;576.67;;;4.30;99.90;;;;;;4964657;28;20093;-85
2022/01/19 00:10:09;;;;;;;1243.85;576.78;;;4.30;99.90;;;;;;4968871;28;20402;-86
2022/01/19 00:12:35;;;;;;;1235.10;570.63;;;4.30;99.90;;;;;;4971865;28;20573;-86
2022/01/19 00:15:00;;;;;;;1231.85;564.22;;;4.30;99.90;;;;;;4969941;28;20047;-86
2022/01/19 00:17:26;;;;;;;1240.30;580.45;;;4.20;99.90;;;;;;4957804;28;20043;-86
2022/01/19 00:19:52;;;;;;;1241.93;572.63;;;4.20;99.90;;;;;;4967079;28;20657;-86
2022/01/19 00:22:17;;;;;;;1226.80;561.42;;;4.20;99.90;;;;;;4964765;28;20122;-86
2022/01/19 00:24:43;;;;;;;1225.97;564.17;;;4.20;99.90;;;;;;4965436;28;20043;-85
2022/01/19 00:27:10;;;;;;;1234.82;566.40;;;4.20;99.90;;;;;;4965638;28;20691;-86
2022/01/19 00:29:35;;;;;;;1231.35;561.67;;;4.20;99.90;;;;;;4972970;28;20384;-89
2022/01/19 00:32:01;;;;;;;1233.55;574.05;;;4.20;99.90;;;;;;4971148;28;20046;-86
2022/01/19 00:34:28;;;;;;;1226.53;562.92;;;4.10;99.90;;;;;;4970159;28;20099;-87
2022/01/19 00:36:54;;;;;;;1228.20;570.60;;;4.20;99.90;;;;;;4951352;28;20082;-88
2022/01/19 00:39:19;;;;;;;1228.82;570.05;;;4.10;99.90;;;;;;4961591;28;20096;-88
2022/01/19 00:41:45;;;;;;;1245.88;582.53;;;4.10;99.90;;;;;;4956992;28;20504;-86
2022/01/19 00:44:11;;;;;;;1236.85;567.72;;;4.10;99.90;;;;;;4958453;28;20043;-86
2022/01/19 00:46:36;;;;;;;1228.72;562.85;;;4.10;99.90;;;;;;4965064;28;20141;-87
2022/01/19 00:49:02;;;;;;;1245.95;575.25;;;4.10;99.90;;;;;;4959161;28;20193;-92
2022/01/19 00:51:27;;;;;;;1239.78;570.72;;;4.00;99.90;;;;;;4968205;28;20515;-85
2022/01/19 00:53:53;;;;;;;1230.47;555.25;;;4.00;99.90;;;;;;4968227;28;20055;-85
2022/01/19 00:56:19;;;;;;;1228.20;566.22;;;4.00;99.90;;;;;;4968387;28;20054;-88
2022/01/19 00:58:44;;;;;;;1226.32;560.42;;;4.00;99.90;;;;;;4967435;28;20114;-87
2022/01/19 01:01:10;;;;;;;1226.47;559.35;;;4.00;99.90;;;;;;4970257;28;20038;-86
2022/01/19 01:03:35;;;;;;;1219.60;554.25;;;4.00;99.90;;;;;;4954056;28;20135;-86
2022/01/19 01:06:01;;;;;;;1231.90;571.53;;;3.90;99.90;;;;;;4960607;28;20065;-89
2022/01/19 01:08:26;;;;;;;1229.90;552.35;;;3.90;99.90;;;;;;4960112;28;20387;-87
2022/01/19 01:10:52;;;;;;;1222.15;563.40;;;3.90;99.90;;;;;;4956764;28;20039;-87
2022/01/19 01:13:23;;;;;;;1231.78;573.28;;;3.90;99.90;;;;;;4967596;28;20053;-85
2022/01/19 01:18:20;;;;;;;1227.60;567.05;;;3.90;99.90;;;;;;4955089;28;20094;-86
2022/01/19 01:20:47;;;;;;;1233.75;556.45;;;3.90;99.90;;;;;;4961094;28;20451;-87
2022/01/19 01:23:13;;;;;;;1232.53;570.28;;;4.00;99.90;;;;;;4964022;28;20085;-90
2022/01/19 01:25:39;;;;;;;1228.75;557.35;;;3.90;99.90;;;;;;4970395;28;20086;-87
2022/01/19 01:28:06;;;;;;;1251.75;579.97;;;3.90;99.90;;;;;;4958178;28;20686;-85
2022/01/19 01:30:32;;;;;;;1250.25;582.97;;;3.90;99.90;;;;;;4959489;28;20890;-86
2022/01/19 01:32:58;;;;;;;1240.40;572.20;;;3.90;99.90;;;;;;4965136;28;20045;-86
2022/01/19 01:35:23;;;;;;;1233.78;570.65;;;3.80;99.90;;;;;;4965841;28;20038;-87
2022/01/19 01:37:49;;;;;;;1235.07;572.63;;;3.80;99.90;;;;;;4966391;28;20771;-87
2022/01/19 01:40:15;;;;;;;1243.93;575.97;;;3.80;99.90;;;;;;4969223;28;20066;-88
2022/01/19 01:42:41;;;;;;;1232.88;563.80;;;3.80;99.90;;;;;;4965550;28;20050;-90
2022/01/19 01:45:12;;;;;;;1238.90;570.80;;;3.80;99.90;;;;;;4966951;28;20070;-87
2022/01/19 01:47:47;;;;;;;1212.43;541.00;;;3.80;99.90;;;;;;4934991;29;20086;-86
2022/01/19 01:55:24;;;;;;;1228.55;565.55;;;3.80;99.90;;;;;;4969751;28;20058;-87
2022/01/19 01:57:51;;;;;;;1233.30;569.53;;;3.80;99.90;;;;;;4967921;28;20442;-86
2022/01/19 02:00:22;;;;;;;1237.85;574.92;;;3.80;99.90;;;;;;4969193;28;20054;-86
2022/01/19 02:02:48;;;;;;;1246.63;579.55;;;3.80;99.90;;;;;;4967982;28;20379;-85
2022/01/19 02:05:18;;;;;;;1233.43;572.03;;;3.80;99.90;;;;;;4961238;28;20043;-85
2022/01/19 02:15:58;;;;;;;1252.03;588.40;;;3.90;99.90;;;;;;4966617;28;20067;-85
2022/01/19 02:23:55;;;;;;;1225.03;564.80;;;3.90;99.90;;;;;;4964581;28;20047;-85
2022/01/19 02:26:34;;;;;;;1234.95;572.97;;;3.90;99.90;;;;;;4963883;28;20045;-85
2022/01/19 02:29:18;;;;;;;1231.80;575.20;;;3.90;99.90;;;;;;4966711;28;20046;-86
2022/01/19 02:42:37;;;;;;;1249.57;582.47;;;3.90;99.90;;;;;;4958053;28;20058;-87
2022/01/19 02:50:14;;;;;;;1253.70;579.38;;;3.90;99.90;;;;;;4967251;28;20046;-86
2022/01/19 02:52:40;;;;;;;1238.03;573.08;;;4.00;99.90;;;;;;4966887;28;20049;-84
2022/01/19 02:55:06;;;;;;;1239.22;577.95;;;4.00;99.90;;;;;;4966717;28;20035;-86
2022/01/19 02:57:35;;;;;;;1221.85;558.63;;;4.00;99.90;;;;;;4968075;28;20506;-86
2022/01/19 03:10:57;;;;;;;1243.35;572.60;;;4.00;99.90;;;;;;4966165;28;20448;-87
2022/01/19 03:13:22;;;;;;;1230.75;568.10;;;4.00;99.90;;;;;;4967524;28;20057;-85
2022/01/19 03:15:48;;;;;;;1242.13;578.28;;;4.00;99.90;;;;;;4966541;28;20621;-87
2022/01/19 03:18:14;;;;;;;1249.00;579.10;;;4.00;99.90;;;;;;4959799;28;20047;-86
2022/01/19 03:20:39;;;;;;;1248.07;561.90;;;4.00;99.90;;;;;;4963334;28;20067;-86
2022/01/19 03:23:16;;;;;;;1236.55;578.30;;;4.00;99.90;;;;;;4965551;28;20086;-85
2022/01/19 03:25:41;;;;;;;1224.50;557.03;;;4.00;99.90;;;;;;4964202;28;20126;-84
2022/01/19 03:28:07;;;;;;;1225.38;563.58;;;4.00;99.90;;;;;;4962710;28;20248;-85
2022/01/19 03:30:33;;;;;;;1232.65;573.25;;;4.00;99.90;;;;;;4962813;28;20058;-85
2022/01/19 03:32:59;;;;;;;1243.30;587.50;;;4.00;99.90;;;;;;4960823;28;20051;-85
2022/01/19 03:35:25;;;;;;;1244.97;578.17;;;4.00;99.90;;;;;;4965959;28;20133;-85
2022/01/19 03:37:50;;;;;;;1240.97;585.65;;;4.00;99.90;;;;;;4968997;28;20038;-86
2022/01/19 03:40:16;;;;;;;1238.70;577.83;;;4.00;99.90;;;;;;4971712;28;20035;-85
2022/01/19 03:42:42;;;;;;;1239.90;565.25;;;4.00;99.90;;;;;;4969606;28;20043;-85
2022/01/19 03:45:09;;;;;;;1229.50;566.88;;;4.00;99.90;;;;;;4963707;28;20143;-87
2022/01/19 03:47:41;;;;;;;1232.30;560.70;;;4.00;99.90;;;;;;4962606;28;20069;-87
2022/01/19 03:50:08;;;;;;;1266.68;584.78;;;4.00;99.90;;;;;;4962192;28;20078;-87
2022/01/19 03:52:34;;;;;;;1238.72;574.50;;;4.00;99.90;;;;;;4961403;28;20042;-86
2022/01/19 03:55:00;;;;;;;1241.35;577.13;;;4.00;99.90;;;;;;4968378;28;20388;-86
2022/01/19 03:57:25;;;;;;;1241.10;574.40;;;4.00;99.90;;;;;;4966229;28;20117;-86
2022/01/19 03:59:51;;;;;;;1235.95;578.67;;;4.00;99.90;;;;;;4969152;28;20161;-85
2022/01/19 04:02:18;;;;;;;1242.50;571.08;;;4.00;99.90;;;;;;4969368;28;20447;-86
2022/01/19 04:04:50;;;;;;;1249.53;581.95;;;4.00;99.90;;;;;;4969053;28;20098;-86
2022/01/19 04:07:15;;;;;;;1246.70;584.15;;;4.00;99.90;;;;;;4970218;28;20059;-86
2022/01/19 04:09:44;;;;;;;1233.60;577.45;;;4.00;99.90;;;;;;4970356;28;20117;-86
2022/01/19 04:12:16;;;;;;;1237.65;574.08;;;4.00;99.90;;;;;;4971523;28;20054;-86
2022/01/19 04:14:42;;;;;;;1234.50;576.20;;;4.00;99.90;;;;;;4971324;28;20054;-86
2022/01/19 04:17:13;;;;;;;1244.97;588.03;;;4.00;99.90;;;;;;4963796;28;20120;-86
2022/01/19 04:22:06;;;;;;;1275.88;584.88;;;4.00;99.90;;;;;;4971816;28;20054;-87
2022/01/19 04:24:32;;;;;;;1258.65;588.08;;;4.00;99.90;;;;;;4976655;28;20379;-92
2022/01/19 04:29:46;;;;;;;1244.03;575.72;;;4.00;99.90;;;;;;4972063;28;20055;-87
2022/01/19 04:32:17;;;;;;;1234.47;577.90;;;4.00;99.90;;;;;;4968287;28;20141;-87
2022/01/19 04:34:44;;;;;;;1266.43;595.83;;;4.00;99.90;;;;;;4968984;28;20088;-88
2022/01/19 05:04:10;;;;;;;1235.55;574.40;;;4.60;99.90;;;;;;4959225;28;20075;-88
2022/01/19 05:06:43;;;;;;;1239.30;581.97;;;3.90;99.90;;;;;;4956399;29;20054;-88
2022/01/19 05:14:51;;;;;;;1238.93;578.88;;;3.90;99.90;;;;;;4927582;28;20138;-86
2022/01/19 05:17:17;;;;;;;1225.90;565.05;;;3.90;99.90;;;;;;4968027;28;20168;-86
2022/01/19 06:51:01;;;;;;;1264.50;584.42;;;4.00;99.90;;;;;;6128093;23;20124;-86
2022/01/19 06:53:27;;;;;;;1243.13;577.70;;;4.00;99.90;;;;;;4947554;28;20051;-89
2022/01/19 06:55:57;;;;;;;1237.30;573.00;;;4.00;99.90;;;;;;4953518;28;20053;-88
2022/01/19 06:58:26;;;;;;;1246.00;586.35;;;4.00;99.90;;;;;;4952761;28;20047;-86
2022/01/19 07:01:10;;;;;;;1250.63;586.88;;;4.00;99.90;;;;;;4950678;29;20471;-88
2022/01/19 07:12:29;;;;;;;1254.43;586.15;;;4.10;99.90;;;;;;5554488;23;20055;-89
2022/01/19 07:14:55;;;;;;;1248.97;585.97;;;4.10;99.90;;;;;;4954407;29;20043;-89
2022/01/19 07:17:20;;;;;;;1256.22;594.53;;;4.10;99.90;;;;;;4959035;29;20050;-88
2022/01/19 07:35:45;;;;;;;1253.07;585.58;;;4.10;99.90;;;;;;5730970;23;20055;-88
2022/01/19 07:38:11;;;;;;;1256.88;591.58;;;4.10;99.90;;;;;;4955245;28;20067;-86
2022/01/19 07:40:37;;;;;;;1254.18;586.00;;;4.10;99.90;;;;;;4941769;28;20146;-88
2022/01/19 07:43:02;;;;;;;1259.80;581.72;;;4.10;99.90;;;;;;4957186;28;20087;-87
2022/01/19 07:45:28;;;;;;;1245.35;574.42;;;4.20;99.90;;;;;;4957807;28;20043;-87
2022/01/19 07:47:55;;;;;;;1258.85;588.72;;;4.10;99.90;;;;;;4956488;28;20090;-86
2022/01/19 07:50:20;;;;;;;1249.95;579.30;;;4.10;99.90;;;;;;4952910;28;20049;-85
2022/01/19 07:52:46;;;;;;;1253.47;584.45;;;4.10;99.90;;;;;;4953339;28;20038;-87
2022/01/19 07:55:11;;;;;;;1258.25;582.85;;;4.10;99.90;;;;;;4953504;29;20062;-85
2022/01/19 07:57:40;;;;;;;1259.95;579.20;;;4.10;99.90;;;;;;4950987;29;20458;-86
2022/01/19 08:00:07;;;;;;;1249.85;576.78;;;4.10;99.90;;;;;;4950177;29;20126;-90
2022/01/19 08:02:34;;;;;;;1259.53;575.40;;;4.10;99.90;;;;;;4945461;29;20520;-86
2022/01/19 08:04:59;;;;;;;1243.65;566.17;;;4.10;99.90;;;;;;4950924;29;20093;-86
2022/01/19 08:07:25;;;;;;;1255.40;578.90;;;4.10;99.90;;;;;;4936030;29;20054;-86
2022/01/19 08:09:50;;;;;;;1251.72;581.20;;;4.10;99.90;;;;;;4946952;28;20047;-84
2022/01/19 08:12:16;;;;;;;1237.32;565.08;;;4.10;99.90;;;;;;4953422;29;20102;-85
2022/01/19 08:14:42;;;;;;;1287.72;596.88;;;4.00;99.90;;;;;;4946755;29;20042;-87
2022/01/19 08:17:07;;;;;;;1287.63;580.35;;;4.00;99.90;;;;;;4955154;28;20098;-85
2022/01/19 08:19:33;;;;;;;1241.88;574.83;;;4.10;99.90;;;;;;4948102;29;20043;-85
2022/01/19 08:21:58;;;;;;;1256.55;591.97;;;4.10;99.90;;;;;;4953455;29;20081;-85
2022/01/19 08:26:59;;;;;;;1263.75;576.38;;;4.20;99.90;;;;;;4584542;26;20051;-86
2022/01/19 08:29:25;;;;;;;1255.10;589.70;;;4.20;99.90;;;;;;4955651;29;20406;-86
2022/01/19 08:47:23;;;;;;;1274.13;597.78;;;4.30;99.90;;;;;;5935411;23;20056;-85
2022/01/19 08:49:48;;;;;;;1284.72;599.83;;;4.40;99.90;;;;;;4917677;29;20047;-85
2022/01/19 08:52:19;;;;;;;1276.45;596.00;;;4.40;99.90;;;;;;4919156;29;20101;-87
2022/01/19 08:54:47;;;;;;;1269.03;589.08;;;4.40;99.90;;;;;;4927146;29;20055;-87
2022/01/19 08:57:12;;;;;;;1261.50;584.90;;;4.40;99.90;;;;;;4912180;29;20051;-85
2022/01/19 08:59:38;;;;;;;1282.05;597.05;;;4.40;99.90;;;;;;4913601;29;20162;-89
2022/01/19 09:02:06;;;;;;;1253.53;578.92;;;4.40;99.90;;;;;;4909632;29;20040;-88
2022/01/19 09:04:31;;;;;;;1273.85;597.75;;;4.50;99.90;;;;;;4910092;29;20040;-88
2022/01/19 09:06:59;;;;;;;1261.80;594.00;;;4.50;99.90;;;;;;4920597;29;20237;-86
2022/01/19 09:09:25;;;;;;;1277.20;603.08;;;4.50;99.90;;;;;;4921671;29;20054;-85
2022/01/19 09:11:50;;;;;;;1261.72;592.30;;;4.50;99.90;;;;;;4924622;29;20126;-84
2022/01/19 09:14:16;;;;;;;1258.45;593.33;;;4.60;99.90;;;;;;4928060;29;20102;-92
2022/01/19 09:58:11;;;;;;;1271.93;600.63;;;4.90;99.90;;;;;;5829963;23;20042;-87
2022/01/19 10:00:37;;;;;;;1297.28;611.72;;;4.90;99.90;;;;;;4951731;29;20130;-86
2022/01/19 10:03:29;;;;;;;1273.40;593.70;;;4.90;99.90;;;;;;4951624;29;20107;-86
2022/01/19 10:19:54;;;;;;;1274.93;599.83;;;4.90;99.90;;;;;;4969125;28;20050;-89
2022/01/19 10:22:21;;;;;;;1269.00;600.28;;;4.80;99.90;;;;;;4965869;28;20098;-87
2022/01/19 10:25:02;;;;;;;1272.32;598.33;;;4.80;99.90;;;;;;4964326;28;20101;-87
2022/01/19 10:27:36;;;;;;;1274.18;598.83;;;4.80;99.90;;;;;;4961901;28;20055;-87
2022/01/19 10:30:04;;;;;;;1284.85;610.08;;;4.80;99.90;;;;;;4961479;28;20031;-87
2022/01/19 10:32:43;;;;;;;1279.60;607.38;;;4.80;99.90;;;;;;4966331;28;20135;-88
2022/01/19 10:35:29;;;;;;;1278.43;601.47;;;4.80;99.90;;;;;;4961461;28;20435;-86
2022/01/19 10:38:05;;;;;;;1278.15;609.72;;;4.80;99.90;;;;;;4961912;28;20624;-87
2022/01/19 10:40:31;;;;;;;1287.75;596.35;;;4.80;99.90;;;;;;4957572;28;20445;-84
2022/01/19 10:42:58;;;;;;;1281.90;610.00;;;4.80;99.90;;;;;;4962282;28;20046;-88
2022/01/19 10:45:24;;;;;;;1284.13;606.55;;;4.80;99.90;;;;;;4961975;28;20133;-87
2022/01/19 10:47:58;;;;;;;1381.72;643.17;;;4.80;99.90;;;;;;4967844;28;20530;-89
2022/01/19 10:50:28;;;;;;;1270.22;594.28;;;4.80;99.90;;;;;;4969474;28;20137;-89
2022/01/19 11:37:53;;;;;;;1309.85;631.78;;;5.00;99.90;;;;;;4973603;23;20074;-87
2022/01/19 11:40:19;;;;;;;1292.10;624.83;;;5.10;99.90;;;;;;4890705;29;20115;-89
2022/01/19 11:42:44;;;;;;;1299.28;630.33;;;5.20;99.90;;;;;;4928740;29;20051;-89
2022/01/19 11:45:39;;;;;;;1344.22;641.40;;;5.20;99.90;;;;;;4929393;29;20098;-88
2022/01/19 11:48:12;;;;;;;1295.90;620.78;;;5.30;99.90;;;;;;4932337;28;20600;-89
2022/01/19 11:50:37;;;;;;;1312.07;633.78;;;5.30;99.90;;;;;;4928949;29;20047;-87
2022/01/19 11:53:08;;;;;;;1312.60;642.15;;;5.40;99.90;;;;;;4924971;29;20733;-88
2022/01/19 11:55:34;;;;;;;1297.75;634.33;;;5.40;99.90;;;;;;4939117;28;20062;-86
2022/01/19 11:58:16;;;;;;;1334.70;643.30;;;5.50;99.90;;;;;;4959090;28;20082;-88
2022/01/19 12:00:45;;;;;;;1307.38;637.08;;;5.50;99.90;;;;;;4930052;29;20043;-86
2022/01/19 12:03:26;;;;;;;1324.00;646.67;;;5.60;99.90;;;;;;4934697;29;20126;-90
2022/01/19 12:05:55;;;;;;;1313.30;643.80;;;5.60;99.90;;;;;;4947266;29;20058;-88
2022/01/19 12:08:31;;;;;;;1313.38;641.70;;;5.60;99.90;;;;;;4930773;29;20126;-89
2022/01/19 12:11:18;;;;;;;1308.82;635.53;;;5.60;99.90;;;;;;4930476;29;20069;-86
2022/01/19 12:14:00;;;;;;;1312.15;641.83;;;5.60;99.90;;;;;;4928472;29;20051;-88
2022/01/19 12:19:07;;;;;;;1314.82;633.90;;;5.60;99.90;;;;;;4933679;29;20059;-86
2022/01/19 12:21:41;;;;;;;1315.55;641.67;;;5.60;99.90;;;;;;4934120;29;20404;-93
2022/01/19 12:24:13;;;;;;;1318.80;648.75;;;5.60;99.90;;;;;;4935306;29;20074;-87
2022/01/19 12:27:01;;;;;;;1337.78;642.35;;;5.60;99.90;;;;;;4935646;28;20043;-86
2022/01/19 12:29:33;;;;;;;1317.68;631.25;;;5.60;99.90;;;;;;4939680;29;20047;-87
2022/01/19 12:32:00;;;;;;;1316.43;636.70;;;5.60;99.90;;;;;;4934484;29;20506;-89
2022/01/19 12:34:47;;;;;;;1306.82;630.85;;;5.60;99.90;;;;;;4934587;29;20110;-91
2022/01/19 12:37:32;;;;;;;1311.85;640.05;;;5.60;99.90;;;;;;4932069;29;20530;-89
2022/01/19 12:39:58;;;;;;;1311.03;645.25;;;5.60;99.90;;;;;;4929427;29;20198;-89
2022/01/19 12:42:29;;;;;;;1323.20;644.33;;;5.60;99.90;;;;;;4935777;28;20094;-88
2022/01/19 12:44:57;;;;;;;1303.03;628.85;;;5.60;99.90;;;;;;4937430;29;20039;-90
2022/01/19 12:47:26;;;;;;;1314.70;634.30;;;5.60;99.90;;;;;;4932220;28;20415;-87
2022/01/19 12:50:18;;;;;;;1315.97;643.25;;;5.60;99.90;;;;;;4930338;29;20058;-87
2022/01/19 12:52:53;;;;;;;1314.10;641.25;;;5.60;99.90;;;;;;4928932;29;20043;-87
2022/01/19 12:55:26;;;;;;;1305.60;622.28;;;5.50;99.90;;;;;;4930212;28;20055;-88
2022/01/19 12:57:54;;;;;;;1307.68;626.65;;;5.60;99.90;;;;;;4930845;28;20134;-89
2022/01/19 13:00:33;;;;;;;1320.40;637.45;;;5.60;99.90;;;;;;4931939;28;20105;-88
2022/01/19 13:02:59;;;;;;;1296.63;610.78;;;5.60;99.90;;;;;;4931322;29;20065;-88
2022/01/19 13:05:30;;;;;;;1302.60;630.58;;;5.60;99.90;;;;;;4934235;29;20062;-87
2022/01/19 13:08:02;;;;;;;1318.10;640.88;;;5.60;99.90;;;;;;4937480;29;20059;-91
2022/01/19 13:10:45;;;;;;;1310.32;643.05;;;5.70;99.90;;;;;;4933066;29;20133;-91
2022/01/19 13:13:13;;;;;;;1298.38;625.72;;;5.70;99.90;;;;;;4927573;28;20069;-87
2022/01/19 13:15:49;;;;;;;1310.97;640.75;;;5.70;99.90;;;;;;4929851;28;20048;-86
2022/01/19 13:18:36;;;;;;;1307.22;632.40;;;5.70;99.90;;;;;;4934452;29;20047;-88
2022/01/19 13:21:14;;;;;;;1315.07;642.92;;;5.80;99.90;;;;;;4934780;29;20112;-91
2022/01/19 13:24:17;;;;;;;1324.15;641.50;;;5.70;99.90;;;;;;4932298;28;20114;-88
2022/01/19 13:26:49;;;;;;;1306.18;631.10;;;5.70;99.90;;;;;;4930181;29;20138;-87
2022/01/19 13:29:31;;;;;;;1295.72;625.28;;;5.70;99.90;;;;;;4929161;29;20073;-87
2022/01/19 13:32:01;;;;;;;1306.88;615.83;;;5.70;99.90;;;;;;4931449;29;20131;-84
2022/01/19 13:34:29;;;;;;;1297.40;623.30;;;5.70;99.90;;;;;;4931009;29;20077;-86
2022/01/19 13:36:59;;;;;;;1307.75;636.67;;;5.70;99.90;;;;;;4928650;28;20143;-87
2022/01/19 13:39:25;;;;;;;1315.47;637.72;;;5.70;99.90;;;;;;4927795;29;20465;-85
2022/01/19 13:41:53;;;;;;;1323.45;649.72;;;5.60;99.90;;;;;;4930045;29;20046;-88
2022/01/19 13:44:32;;;;;;;1300.05;600.40;;;5.60;99.90;;;;;;4927781;29;20055;-90
2022/01/19 13:47:24;;;;;;;1305.90;623.15;;;5.60;99.90;;;;;;4928843;29;20051;-87
2022/01/19 13:49:53;;;;;;;1298.63;630.67;;;5.60;99.90;;;;;;4935201;29;20054;-87
2022/01/19 13:52:25;;;;;;;1315.20;639.97;;;5.60;99.90;;;;;;4936725;29;20163;-86
2022/01/19 13:54:51;;;;;;;1341.18;641.78;;;5.60;99.90;;;;;;4937670;29;20043;-88
2022/01/19 13:57:28;;;;;;;1309.60;637.85;;;5.60;99.90;;;;;;4937714;29;20247;-89
2022/01/19 14:00:07;;;;;;;1331.63;657.85;;;5.60;99.90;;;;;;4935264;29;20051;-88
2022/01/19 14:02:33;;;;;;;1327.90;639.25;;;5.60;99.90;;;;;;4939547;29;20058;-89
2022/01/19 14:05:01;;;;;;;1312.00;642.03;;;5.60;99.90;;;;;;4936608;28;20059;-91
2022/01/19 14:07:26;;;;;;;1310.57;645.58;;;5.60;99.90;;;;;;4931166;29;20106;-89
2022/01/19 14:09:52;;;;;;;1314.15;645.42;;;5.50;99.90;;;;;;4949066;29;20047;-89
2022/01/19 14:12:19;;;;;;;1320.65;642.42;;;5.50;99.90;;;;;;4950452;29;20107;-86
2022/01/19 14:14:48;;;;;;;1313.55;637.03;;;5.50;99.90;;;;;;4943521;28;20125;-89
2022/01/19 14:17:31;;;;;;;1317.40;640.10;;;5.50;99.90;;;;;;4934582;29;20086;-91
2022/01/19 14:19:58;;;;;;;1312.80;644.17;;;5.10;99.90;;;;;;4951718;29;20039;-86
2022/01/19 14:22:42;;;;;;;1318.35;655.42;;;5.50;99.90;;;;;;4936885;29;20042;-89
2022/01/19 14:25:12;;;;;;;1317.55;646.83;;;5.50;99.90;;;;;;4932368;29;20093;-88
2022/01/19 14:27:51;;;;;;;1315.65;647.92;;;5.50;99.90;;;;;;4931379;29;20047;-89
2022/01/19 14:30:25;;;;;;;1306.85;640.60;;;5.50;99.90;;;;;;4920141;29;20054;-88
2022/01/19 14:33:09;;;;;;;1313.47;636.47;;;5.40;99.90;;;;;;4933108;29;20431;-92
2022/01/19 14:35:40;;;;;;;1295.57;622.25;;;5.50;99.90;;;;;;4934381;29;20510;-87
2022/01/19 14:38:08;;;;;;;1311.45;650.55;;;5.40;99.90;;;;;;4945050;29;20066;-86
2022/01/19 14:40:51;;;;;;;1310.28;647.60;;;5.40;99.90;;;;;;4914971;29;20052;-90
2022/01/19 14:43:21;;;;;;;1302.47;638.97;;;5.40;99.90;;;;;;4928867;29;20058;-90
2022/01/19 14:45:55;;;;;;;1305.90;630.85;;;5.40;99.90;;;;;;4933981;29;20254;-90
2022/01/19 14:48:25;;;;;;;1299.72;626.63;;;5.40;99.90;;;;;;4934263;29;20043;-90
2022/01/19 14:50:51;;;;;;;1305.60;632.33;;;5.40;99.90;;;;;;4934050;29;20478;-90
2022/01/19 14:53:17;;;;;;;1304.90;636.30;;;5.40;99.90;;;;;;4932112;29;20039;-89
2022/01/19 14:55:44;;;;;;;1294.45;620.58;;;5.40;99.90;;;;;;4932981;29;20062;-86
2022/01/19 14:58:11;;;;;;;1301.10;622.42;;;5.40;99.90;;;;;;4932317;29;20051;-87
2022/01/19 15:00:41;;;;;;;1302.10;636.10;;;5.40;99.90;;;;;;4932752;29;20050;-89
2022/01/19 15:03:07;;;;;;;1309.72;644.10;;;5.50;99.90;;;;;;4932563;29;20043;-86
2022/01/19 15:05:35;;;;;;;1301.45;636.45;;;5.50;99.90;;;;;;4933604;29;20071;-89
2022/01/19 15:08:02;;;;;;;1306.47;636.15;;;5.50;99.90;;;;;;4930386;28;20062;-86
2022/01/19 15:10:29;;;;;;;1300.47;635.45;;;5.50;99.90;;;;;;4933282;29;20390;-83
2022/01/19 15:12:56;;;;;;;1308.78;646.80;;;5.50;99.90;;;;;;4932111;29;20408;-82
2022/01/19 15:15:25;;;;;;;1304.68;634.33;;;5.50;99.90;;;;;;4942845;29;20380;-83
2022/01/19 15:17:56;;;;;;;1306.80;647.20;;;5.50;99.90;;;;;;4932853;29;20044;-82
2022/01/19 15:20:23;;;;;;;1307.20;634.75;;;5.50;99.90;;;;;;4932170;29;20147;-84
2022/01/19 15:22:49;;;;;;;1300.35;633.33;;;5.50;99.90;;;;;;4931868;29;20046;-83
2022/01/19 15:25:18;;;;;;;1309.68;645.35;;;5.60;99.90;;;;;;4950261;29;20122;-83
2022/01/19 15:27:47;;;;;;;1305.35;641.50;;;5.50;99.90;;;;;;4931605;29;20043;-84
2022/01/19 15:30:12;;;;;;;1320.57;650.13;;;5.50;99.90;;;;;;4933634;29;20036;-83
2022/01/19 15:32:39;;;;;;;1307.88;634.50;;;5.60;99.90;;;;;;4937394;28;20042;-88
2022/01/19 15:35:05;;;;;;;1318.72;643.33;;;5.60;99.90;;;;;;4944864;28;20051;-89
2022/01/19 15:37:31;;;;;;;1313.15;643.20;;;5.60;99.90;;;;;;4938351;29;20045;-86
2022/01/19 15:39:57;;;;;;;1305.75;634.45;;;5.60;99.90;;;;;;4953533;28;20046;-89
2022/01/19 15:42:22;;;;;;;1304.93;630.72;;;5.60;99.90;;;;;;4934879;29;20856;-90
2022/01/19 15:44:48;;;;;;;1302.00;628.33;;;5.60;99.90;;;;;;4941011;29;20039;-91
2022/01/19 15:47:15;;;;;;;1313.05;642.20;;;5.70;99.90;;;;;;4937439;29;20062;-89
2022/01/19 15:49:41;;;;;;;1303.28;625.67;;;5.70;99.90;;;;;;4939776;28;20125;-88
2022/01/19 15:52:08;;;;;;;1313.30;636.13;;;5.70;99.90;;;;;;4950109;28;20058;-88
2022/01/19 15:58:35;;;;;;;1413.38;687.92;;;5.80;99.90;;;;;;4909649;29;20058;-88
2022/01/19 16:01:01;;;;;;;1343.93;656.83;;;5.90;99.90;;;;;;4900801;29;20040;-87
2022/01/19 16:03:27;;;;;;;1324.90;661.10;;;6.10;99.90;;;;;;4931459;28;20094;-87
2022/01/19 16:05:54;;;;;;;1330.75;667.92;;;6.00;99.90;;;;;;4948741;28;20854;-86
2022/01/19 16:08:21;;;;;;;1324.00;657.92;;;7.10;99.90;;;;;;4938906;29;20051;-88
2022/01/19 16:10:46;;;;;;;1329.05;657.92;;;6.10;99.90;;;;;;4933333;28;20051;-87
2022/01/19 16:13:12;;;;;;;1323.78;652.90;;;5.70;99.90;;;;;;4936197;28;20121;-89
2022/01/19 20:55:25;;;;;;;1294.15;625.92;;;4.40;99.90;;;;;;5473050;23;20057;-83
2022/01/19 20:57:51;;;;;;;1303.95;642.95;;;4.40;99.90;;;;;;4965017;28;20043;-84
2022/01/19 21:00:18;;;;;;;1283.72;618.10;;;4.30;99.90;;;;;;4964046;28;20695;-82
2022/01/19 21:02:45;;;;;;;1287.72;624.95;;;4.30;99.90;;;;;;4965387;28;20129;-82
2022/01/19 21:05:11;;;;;;;1276.70;615.03;;;4.20;99.90;;;;;;4968842;28;20351;-84
2022/01/19 21:07:39;;;;;;;1268.75;600.28;;;3.90;99.90;;;;;;4951990;28;20464;-84
2022/01/19 21:10:07;;;;;;;1283.50;619.50;;;4.10;99.90;;;;;;4953798;28;20060;-84
2022/01/19 21:12:35;;;;;;;1278.20;616.78;;;4.10;99.90;;;;;;4963017;28;20082;-85
2022/01/19 21:15:05;;;;;;;1272.72;617.92;;;4.10;99.90;;;;;;4979556;28;20108;-82
2022/01/19 21:17:31;;;;;;;1264.68;611.28;;;4.00;99.90;;;;;;4977418;28;20061;-84
2022/01/19 21:19:57;;;;;;;1269.75;615.13;;;4.10;99.90;;;;;;4969093;28;20047;-83
2022/01/19 21:22:22;;;;;;;1262.93;603.33;;;3.90;99.90;;;;;;4957925;28;20078;-84
2022/01/19 21:24:48;;;;;;;1260.93;606.40;;;3.30;99.90;;;;;;4957268;28;20050;-83
2022/01/19 21:27:14;;;;;;;1266.90;614.20;;;4.10;99.90;;;;;;4955385;28;20054;-82
2022/01/19 21:29:41;;;;;;;1258.93;604.63;;;5.10;99.90;;;;;;4969101;28;20081;-84
2022/01/19 21:32:13;;;;;;;1255.47;602.63;;;3.90;99.90;;;;;;4975393;28;20126;-82
2022/01/19 21:34:39;;;;;;;1262.95;606.17;;;5.20;99.90;;;;;;4968230;28;20481;-83
2022/01/19 21:37:06;;;;;;;1251.63;592.58;;;4.90;99.90;;;;;;4968617;28;20051;-82
2022/01/19 21:39:34;;;;;;;1247.75;590.03;;;3.90;99.90;;;;;;4973638;28;20042;-82
2022/01/19 21:42:00;;;;;;;1255.03;597.72;;;4.00;99.90;;;;;;4951440;28;20089;-85
2022/01/19 21:44:26;;;;;;;1244.32;588.75;;;3.90;99.90;;;;;;4952828;28;20078;-82
2022/01/19 21:46:56;;;;;;;1250.60;591.95;;;4.00;99.90;;;;;;4978231;28;20594;-83
2022/01/19 21:49:22;;;;;;;1244.55;589.75;;;3.90;99.90;;;;;;4955296;28;20450;-82
2022/01/19 21:51:48;;;;;;;1244.85;578.15;;;4.00;99.90;;;;;;4968776;28;20129;-83
2022/01/19 21:54:15;;;;;;;1251.93;595.95;;;4.10;99.90;;;;;;4968527;28;20126;-82
2022/01/19 21:56:41;;;;;;;1237.25;574.33;;;4.00;99.90;;;;;;4971612;28;20058;-83
2022/01/19 21:59:06;;;;;;;1246.97;590.45;;;4.00;99.90;;;;;;4974930;28;20034;-82
2022/01/19 22:01:32;;;;;;;1238.00;578.75;;;4.10;99.90;;;;;;4966746;28;20126;-87
2022/01/19 22:03:58;;;;;;;1245.50;591.53;;;4.10;99.90;;;;;;4963211;28;20042;-86
2022/01/19 22:06:24;;;;;;;1234.78;575.05;;;4.10;99.90;;;;;;4974129;28;20050;-81
2022/01/19 22:08:53;;;;;;;1146.95;490.83;;;4.10;99.90;;;;;;4967387;28;20050;-81
2022/01/19 22:11:19;;;;;;;1079.32;452.00;;;4.90;99.90;;;;;;4963944;28;20051;-81
2022/01/19 22:13:45;;;;;;;1097.50;462.63;;;4.10;99.90;;;;;;4969285;28;20046;-82
2022/01/19 22:16:11;;;;;;;1099.60;469.88;;;4.10;99.90;;;;;;4955188;28;20050;-80
2022/01/19 22:18:37;;;;;;;1082.80;455.08;;;4.10;99.90;;;;;;4971560;28;20053;-81
2022/01/19 22:21:03;;;;;;;1085.22;456.10;;;4.10;99.90;;;;;;4961880;28;20479;-80
2022/01/19 22:23:29;;;;;;;1096.93;462.23;;;4.00;99.90;;;;;;4967133;28;20124;-80